Terminal Aerodrome Forecast
Issued by NWS Norman, OK

Home | Current Version | Previous Version | Text Only | Print | Product List | Glossary On
Versions: 1 2 3 4 5 6 7 8 9 10 11 12 13
000
FTUS44 KOUN 280520
TAFOKC
TAF
KOKC 280520Z 2806/2906 06006KT P6SM FEW250
     FM281000 08008KT P6SM OVC015
      TEMPO 2811/2815 2SM BR
     FM281800 11012KT P6SM BKN040
      TEMPO 2900/2904 2SM TSRA BR OVC015CB=

USA.gov is the U.S. government's official web portal to all federal, state and local government web resources and services.